createdAt,value
2022-12-19T00:01:32.741Z,19.08
2022-12-19T00:03:04.649Z,18.10
2022-12-19T00:04:36.635Z,18.52
2022-12-19T00:06:09.696Z,18.70
2022-12-19T00:07:41.556Z,19.38
2022-12-19T00:09:13.951Z,19.08
2022-12-19T00:10:58.362Z,18.60
2022-12-19T00:12:30.108Z,18.73
2022-12-19T00:14:01.875Z,19.70
2022-12-19T00:15:34.309Z,19.52
2022-12-19T00:17:06.076Z,19.00
2022-12-19T00:18:40.080Z,19.35
2022-12-19T00:20:12.042Z,19.45
2022-12-19T00:21:47.659Z,19.75
2022-12-19T00:23:19.437Z,19.80
2022-12-19T00:24:51.260Z,18.88
2022-12-19T00:26:26.344Z,18.98
2022-12-19T00:27:58.514Z,18.88
2022-12-19T00:29:30.275Z,19.35
2022-12-19T00:31:03.140Z,19.27
2022-12-19T00:32:34.906Z,19.40
2022-12-19T00:34:06.686Z,18.35
2022-12-19T00:35:38.455Z,18.27
2022-12-19T00:37:11.959Z,19.58
2022-12-19T00:38:44.170Z,19.33
2022-12-19T00:40:15.963Z,19.95
2022-12-19T00:41:47.742Z,19.83
2022-12-19T00:43:20.369Z,18.45
2022-12-19T00:44:52.463Z,20.58
2022-12-19T00:46:24.674Z,20.00
2022-12-19T00:47:56.429Z,19.63
2022-12-19T00:49:28.252Z,19.50
2022-12-19T00:51:06.087Z,19.13
2022-12-19T00:52:39.158Z,19.60
2022-12-19T00:54:11.113Z,19.08
2022-12-19T00:55:43.600Z,19.80
2022-12-19T00:57:15.749Z,18.92
2022-12-19T00:58:48.120Z,19.30
2022-12-19T01:00:19.923Z,19.75
2022-12-19T01:01:52.058Z,19.00
2022-12-19T01:03:24.956Z,18.42
2022-12-19T01:04:56.716Z,17.65
2022-12-19T01:06:28.980Z,17.23
2022-12-19T01:08:01.118Z,17.65
2022-12-19T01:09:36.636Z,18.13
2022-12-19T01:11:09.184Z,17.60
2022-12-19T01:12:46.652Z,18.02
2022-12-19T01:14:22.792Z,17.15
2022-12-19T01:15:55.225Z,17.15
2022-12-19T01:17:27.981Z,18.27
2022-12-19T01:18:59.766Z,18.20
2022-12-19T10:18:26.416Z,22.85
2022-12-19T10:20:34.221Z,21.83
2022-12-19T10:22:21.795Z,21.15
2022-12-19T10:24:02.593Z,21.20
2022-12-19T10:25:34.366Z,19.05
2022-12-19T10:27:24.032Z,21.30
2022-12-19T10:29:11.384Z,21.42
2022-12-19T10:30:53.661Z,22.70
2022-12-19T10:32:44.153Z,21.45
2022-12-19T10:34:22.127Z,21.98
2022-12-19T10:36:02.368Z,23.00
2022-12-19T10:38:20.847Z,22.37
2022-12-19T10:40:24.748Z,20.77
2022-12-19T10:42:11.258Z,21.80
2022-12-19T10:43:47.365Z,20.85
2022-12-19T10:45:21.950Z,21.92
2022-12-19T10:46:53.840Z,20.75
2022-12-19T10:48:30.480Z,20.73
2022-12-19T10:50:09.240Z,21.23
2022-12-19T10:51:42.574Z,21.55
2022-12-19T10:53:15.708Z,21.75
2022-12-19T10:54:49.031Z,20.30
2022-12-19T10:56:23.378Z,20.02
2022-12-19T10:58:02.176Z,20.63
2022-12-19T10:59:34.002Z,21.25
2022-12-19T11:01:22.134Z,21.13
2022-12-19T11:03:13.350Z,19.95
2022-12-19T11:04:48.654Z,20.10
2022-12-19T11:06:41.855Z,19.02
2022-12-19T11:08:16.770Z,20.17
2022-12-19T11:10:02.989Z,20.75
2022-12-19T11:16:00.681Z,20.88
2022-12-19T11:19:44.457Z,20.83
2022-12-19T11:20:28.142Z,19.80
2022-12-19T11:23:06.077Z,20.58
2022-12-19T11:27:11.658Z,19.52
2022-12-19T11:29:31.405Z,19.95
2022-12-19T11:29:54.274Z,20.38
2022-12-19T11:29:54.950Z,19.88
2022-12-19T11:30:09.084Z,19.58
2022-12-19T11:33:29.384Z,20.10
2022-12-19T11:35:16.358Z,20.20
2022-12-19T11:37:00.446Z,19.02
2022-12-19T11:38:45.882Z,19.55
2022-12-19T11:40:22.769Z,18.58
2022-12-19T11:42:08.099Z,20.63
2022-12-19T11:44:03.440Z,21.63
2022-12-19T11:45:47.731Z,20.13
2022-12-19T11:47:48.609Z,19.63
2022-12-19T11:49:44.304Z,20.43
2022-12-19T11:51:25.398Z,20.02
2022-12-19T11:53:18.582Z,20.90
2022-12-19T11:54:59.351Z,20.35
2022-12-19T11:56:31.167Z,19.98
2022-12-19T11:58:03.375Z,20.60
2022-12-19T11:59:37.576Z,21.17
2022-12-19T12:01:23.627Z,20.38
2022-12-19T12:03:07.894Z,21.88
2022-12-19T12:04:42.600Z,21.55
2022-12-19T12:06:18.285Z,20.75
2022-12-19T12:09:20.798Z,19.42
2022-12-19T12:14:27.567Z,19.10
2022-12-19T12:20:06.114Z,19.95
2022-12-19T12:30:59.452Z,20.45
2022-12-19T12:31:15.190Z,21.63
2022-12-19T12:31:16.209Z,20.10
2022-12-19T12:31:38.593Z,20.15
2022-12-19T12:31:39.983Z,20.55
2022-12-19T12:31:50.994Z,19.85
2022-12-19T12:32:02.523Z,21.85
2022-12-19T12:35:33.436Z,22.00
2022-12-19T12:35:42.374Z,22.15
2022-12-19T12:38:23.531Z,21.30
2022-12-19T12:40:05.029Z,21.27
2022-12-19T12:42:04.681Z,22.95
2022-12-19T12:43:46.774Z,22.73
2022-12-19T12:45:21.303Z,22.35
2022-12-19T12:47:02.888Z,20.35
2022-12-19T12:48:47.080Z,21.40
2022-12-19T12:50:22.823Z,21.98
2022-12-19T12:51:55.131Z,21.42
2022-12-19T12:53:33.307Z,23.95
2022-12-19T12:55:15.903Z,21.48
2022-12-19T12:56:48.454Z,22.67
2022-12-19T12:58:42.058Z,22.60
2022-12-19T13:00:24.896Z,22.02
2022-12-19T13:02:13.711Z,22.25
2022-12-19T13:03:57.462Z,21.95
2022-12-19T13:05:41.093Z,22.38
2022-12-19T13:07:20.696Z,21.77
2022-12-19T13:09:16.720Z,21.52
2022-12-19T13:10:58.040Z,21.45
2022-12-19T13:12:48.191Z,20.58
2022-12-19T13:14:35.032Z,21.40
2022-12-19T13:16:45.126Z,21.73
2022-12-19T13:18:32.912Z,20.92
2022-12-19T13:20:04.640Z,22.98
2022-12-19T13:22:04.645Z,23.58
2022-12-19T13:23:36.409Z,22.38
2022-12-19T13:25:26.177Z,22.77
2022-12-19T13:26:57.998Z,22.42
2022-12-19T13:28:29.763Z,21.50
2022-12-19T13:30:01.871Z,23.05
2022-12-19T13:31:35.977Z,22.55
2022-12-19T13:33:10.115Z,22.40
2022-12-19T13:35:06.938Z,24.13
2022-12-19T13:39:47.804Z,22.52
2022-12-19T13:40:01.898Z,23.27
2022-12-19T13:41:57.906Z,24.48
2022-12-19T13:43:48.211Z,22.42
